Time;durP1;ratioP1;P1;durP2;ratioP2;P2;SDS_P1;SDS_P2;PMS_P1;PMS_P2;Temp;Humidity;BMP_temperature;BMP_pressure;BME280_temperature;BME280_humidity;BME280_pressure;Samples;Min_cycle;Max_cycle;Signal;HPM_P1;HPM_P2
2023/09/13 00:01:12;;;;;;;23.52;14.25;;;;;;;;;;4983828;28;20034;-55
2023/09/13 00:03:38;;;;;;;29.55;15.80;;;;;;;;;;4987907;28;20110;-55
2023/09/13 00:06:04;;;;;;;26.65;14.85;;;;;;;;;;4992774;28;20077;-57
2023/09/13 00:08:30;;;;;;;24.13;15.52;;;;;;;;;;4994115;28;20488;-56
2023/09/13 00:11:04;;;;;;;28.23;15.13;;;;;;;;;;4986686;28;20049;-52
2023/09/13 00:13:29;;;;;;;23.65;15.27;;;;;;;;;;4988522;28;20038;-56
2023/09/13 00:15:55;;;;;;;29.88;15.38;;;;;;;;;;4990080;28;20037;-54
2023/09/13 00:18:21;;;;;;;28.48;14.05;;;;;;;;;;4982219;28;20031;-56
2023/09/13 00:20:47;;;;;;;29.48;15.23;;;;;;;;;;4983598;28;20064;-55
2023/09/13 00:23:14;;;;;;;25.35;14.63;;;;;;;;;;4983536;28;20397;-58
2023/09/13 00:25:40;;;;;;;33.22;15.77;;;;;;;;;;4985694;28;20057;-58
2023/09/13 00:28:06;;;;;;;26.48;14.80;;;;;;;;;;4982954;28;21971;-59
2023/09/13 00:30:32;;;;;;;39.83;18.70;;;;;;;;;;4980649;28;21734;-56
2023/09/13 00:32:58;;;;;;;30.48;16.83;;;;;;;;;;4983121;28;20125;-56
2023/09/13 00:35:24;;;;;;;32.38;18.02;;;;;;;;;;4981791;28;20113;-53
2023/09/13 00:37:50;;;;;;;37.60;18.27;;;;;;;;;;4984537;28;20033;-52
2023/09/13 00:40:17;;;;;;;31.75;17.25;;;;;;;;;;4986121;28;20484;-56
2023/09/13 00:42:43;;;;;;;40.13;20.33;;;;;;;;;;4986451;28;20027;-57
2023/09/13 00:45:09;;;;;;;31.98;18.55;;;;;;;;;;4982318;28;20592;-58
2023/09/13 00:47:35;;;;;;;36.45;20.95;;;;;;;;;;4988130;28;20041;-58
2023/09/13 00:50:02;;;;;;;34.83;20.42;;;;;;;;;;4984761;28;20205;-55
2023/09/13 00:52:28;;;;;;;45.00;24.05;;;;;;;;;;4982438;28;20054;-56
2023/09/13 00:54:55;;;;;;;57.45;25.95;;;;;;;;;;4985664;28;20034;-57
2023/09/13 00:57:22;;;;;;;47.88;25.55;;;;;;;;;;4981817;28;20121;-59
2023/09/13 00:59:48;;;;;;;56.80;27.73;;;;;;;;;;4984778;28;20026;-58
2023/09/13 01:02:14;;;;;;;54.65;26.20;;;;;;;;;;4982664;28;20030;-54
2023/09/13 01:04:40;;;;;;;54.83;26.08;;;;;;;;;;4980761;28;20045;-58
2023/09/13 01:07:09;;;;;;;46.20;25.90;;;;;;;;;;4983385;28;20026;-58
2023/09/13 01:09:35;;;;;;;49.13;27.05;;;;;;;;;;4980821;28;20030;-58
2023/09/13 01:12:01;;;;;;;58.10;29.10;;;;;;;;;;4980641;28;20042;-57
2023/09/13 01:14:27;;;;;;;46.67;25.58;;;;;;;;;;4980296;28;20033;-59
2023/09/13 01:17:23;;;;;;;59.42;29.42;;;;;;;;;;4985537;28;20030;-57
2023/09/13 01:20:03;;;;;;;60.90;29.98;;;;;;;;;;4946284;28;20796;-55
2023/09/13 01:22:29;;;;;;;54.28;29.75;;;;;;;;;;4984575;28;20022;-58
2023/09/13 01:24:55;;;;;;;62.65;30.50;;;;;;;;;;4982422;28;20057;-54
2023/09/13 01:27:27;;;;;;;56.83;29.27;;;;;;;;;;4986084;28;20508;-57
2023/09/13 01:29:54;;;;;;;56.72;28.30;;;;;;;;;;4988607;28;20089;-58
2023/09/13 01:32:19;;;;;;;62.03;30.30;;;;;;;;;;4985170;28;20030;-56
2023/09/13 01:34:45;;;;;;;57.65;29.02;;;;;;;;;;4985610;28;20275;-55
2023/09/13 01:37:11;;;;;;;58.70;29.60;;;;;;;;;;4985947;28;20034;-53
2023/09/13 01:39:37;;;;;;;69.50;32.85;;;;;;;;;;4985060;28;20034;-56
2023/09/13 01:42:08;;;;;;;65.82;30.67;;;;;;;;;;4989906;28;20015;-54
2023/09/13 01:44:35;;;;;;;58.88;28.63;;;;;;;;;;4985945;28;20070;-56
2023/09/13 01:47:03;;;;;;;58.55;29.00;;;;;;;;;;4985903;28;20456;-57
2023/09/13 01:49:29;;;;;;;62.00;31.63;;;;;;;;;;4984414;28;20042;-57
2023/09/13 01:51:56;;;;;;;67.93;31.33;;;;;;;;;;4987563;28;20974;-58
2023/09/13 01:54:22;;;;;;;69.85;30.98;;;;;;;;;;4985168;28;20031;-52
2023/09/13 01:56:48;;;;;;;63.30;30.73;;;;;;;;;;4985113;28;20026;-55
2023/09/13 01:59:14;;;;;;;68.18;31.55;;;;;;;;;;4985164;28;20030;-54
2023/09/13 02:01:40;;;;;;;67.10;30.00;;;;;;;;;;4983589;28;20045;-54
2023/09/13 02:04:06;;;;;;;76.20;31.35;;;;;;;;;;4987060;28;20101;-57
2023/09/13 02:06:32;;;;;;;67.07;31.10;;;;;;;;;;4981522;28;20034;-56
2023/09/13 02:08:58;;;;;;;74.13;33.78;;;;;;;;;;4986202;28;20029;-57
2023/09/13 02:11:24;;;;;;;66.05;32.67;;;;;;;;;;4985058;28;20110;-58
2023/09/13 02:13:50;;;;;;;73.53;32.75;;;;;;;;;;4986267;28;20112;-56
2023/09/13 02:16:20;;;;;;;69.18;32.10;;;;;;;;;;4984938;28;20505;-56
2023/09/13 02:18:46;;;;;;;62.60;29.42;;;;;;;;;;4983873;28;21561;-58
2023/09/13 02:21:12;;;;;;;67.47;31.73;;;;;;;;;;4982153;28;20038;-57
2023/09/13 02:23:41;;;;;;;78.90;34.75;;;;;;;;;;4984583;28;20029;-52
2023/09/13 02:26:07;;;;;;;68.32;31.45;;;;;;;;;;4978723;28;20029;-57
2023/09/13 02:28:33;;;;;;;79.60;33.72;;;;;;;;;;4983244;28;20058;-54
2023/09/13 02:30:59;;;;;;;63.55;30.77;;;;;;;;;;4982987;28;20108;-57
2023/09/13 02:33:25;;;;;;;71.68;31.67;;;;;;;;;;4984173;28;20612;-54
2023/09/13 02:35:51;;;;;;;68.03;32.30;;;;;;;;;;4986440;28;20022;-56
2023/09/13 02:38:17;;;;;;;70.55;33.85;;;;;;;;;;4988426;28;20049;-58
2023/09/13 02:40:44;;;;;;;64.10;31.63;;;;;;;;;;4985892;28;20386;-58
2023/09/13 02:43:10;;;;;;;77.95;34.28;;;;;;;;;;4989470;28;20493;-59
2023/09/13 02:45:36;;;;;;;82.25;36.20;;;;;;;;;;4989406;28;20096;-58
2023/09/13 02:48:02;;;;;;;83.13;35.47;;;;;;;;;;4986821;28;20511;-56
2023/09/13 02:50:28;;;;;;;79.80;31.80;;;;;;;;;;4990400;28;20031;-57
2023/09/13 02:52:54;;;;;;;85.13;37.63;;;;;;;;;;4989359;28;20034;-57
2023/09/13 02:55:20;;;;;;;86.82;38.30;;;;;;;;;;4988875;28;20037;-58
2023/09/13 02:57:46;;;;;;;75.60;34.97;;;;;;;;;;4990361;28;20068;-57
2023/09/13 03:00:13;;;;;;;96.90;41.13;;;;;;;;;;4986716;28;20165;-55
2023/09/13 03:02:38;;;;;;;97.90;40.55;;;;;;;;;;4989220;28;20100;-57
2023/09/13 03:05:08;;;;;;;89.22;38.72;;;;;;;;;;4991211;28;20485;-55
2023/09/13 03:07:34;;;;;;;94.47;40.83;;;;;;;;;;4989248;28;20030;-52
2023/09/13 03:10:00;;;;;;;93.38;41.97;;;;;;;;;;4980164;28;20030;-58
2023/09/13 03:12:26;;;;;;;94.13;42.53;;;;;;;;;;4988224;28;20030;-58
2023/09/13 03:14:52;;;;;;;105.55;44.70;;;;;;;;;;4986974;28;20045;-56
2023/09/13 03:17:18;;;;;;;97.57;41.10;;;;;;;;;;4989264;28;20041;-55
2023/09/13 03:19:43;;;;;;;107.18;44.90;;;;;;;;;;4987010;28;20034;-59
2023/09/13 03:22:09;;;;;;;107.18;46.15;;;;;;;;;;4984342;28;20030;-57
2023/09/13 03:24:36;;;;;;;96.57;43.38;;;;;;;;;;4989317;28;20034;-57
2023/09/13 03:27:02;;;;;;;114.90;45.70;;;;;;;;;;4991035;28;20026;-56
2023/09/13 03:29:28;;;;;;;102.07;45.03;;;;;;;;;;4988943;28;20034;-56
2023/09/13 03:31:54;;;;;;;116.70;49.47;;;;;;;;;;4988050;28;20031;-58
2023/09/13 03:34:20;;;;;;;109.85;45.42;;;;;;;;;;4989128;28;20096;-57
2023/09/13 03:36:46;;;;;;;101.82;43.63;;;;;;;;;;4988660;28;20034;-58
2023/09/13 03:39:12;;;;;;;110.82;45.53;;;;;;;;;;4986346;28;20493;-56
2023/09/13 03:41:38;;;;;;;102.97;45.13;;;;;;;;;;4986907;28;20038;-56
2023/09/13 03:44:04;;;;;;;112.35;46.53;;;;;;;;;;4987666;28;20392;-55
2023/09/13 03:46:30;;;;;;;111.53;46.88;;;;;;;;;;4985450;28;20452;-57
2023/09/13 03:48:56;;;;;;;114.88;46.70;;;;;;;;;;4988399;28;20034;-51
2023/09/13 03:51:22;;;;;;;118.07;49.03;;;;;;;;;;4989369;28;20034;-56
2023/09/13 03:53:48;;;;;;;112.00;49.05;;;;;;;;;;4985425;28;20496;-54
2023/09/13 03:56:14;;;;;;;130.35;52.25;;;;;;;;;;4988013;28;20034;-55
2023/09/13 03:58:40;;;;;;;122.30;48.83;;;;;;;;;;4978750;28;20041;-55
2023/09/13 04:01:06;;;;;;;132.20;53.60;;;;;;;;;;4980883;28;20034;-57
2023/09/13 04:03:32;;;;;;;114.78;48.38;;;;;;;;;;4987872;28;20061;-54
2023/09/13 04:05:59;;;;;;;130.93;52.05;;;;;;;;;;4986739;28;20069;-55
2023/09/13 04:08:25;;;;;;;134.50;54.92;;;;;;;;;;4982667;28;20026;-51
2023/09/13 04:10:51;;;;;;;132.18;52.65;;;;;;;;;;4979940;28;20034;-57
2023/09/13 04:13:17;;;;;;;127.53;53.35;;;;;;;;;;4987363;28;20404;-53
2023/09/13 04:15:45;;;;;;;129.10;53.90;;;;;;;;;;4988608;28;20038;-57
2023/09/13 04:18:11;;;;;;;136.45;53.30;;;;;;;;;;4983004;28;20022;-54
2023/09/13 04:20:36;;;;;;;133.55;53.80;;;;;;;;;;4981089;28;20477;-55
2023/09/13 04:23:03;;;;;;;144.50;58.80;;;;;;;;;;4982480;28;20030;-53
2023/09/13 04:25:29;;;;;;;143.95;55.75;;;;;;;;;;4981493;28;20030;-52
2023/09/13 04:27:55;;;;;;;147.13;58.08;;;;;;;;;;4985251;28;20022;-52
2023/09/13 04:30:20;;;;;;;127.43;55.17;;;;;;;;;;4984685;28;20035;-52
2023/09/13 04:32:47;;;;;;;144.13;56.45;;;;;;;;;;4979562;28;20049;-51
2023/09/13 04:35:13;;;;;;;141.60;56.63;;;;;;;;;;4979634;28;20034;-54
2023/09/13 04:37:39;;;;;;;137.50;56.42;;;;;;;;;;4982124;28;20076;-57
2023/09/13 04:40:07;;;;;;;137.90;59.15;;;;;;;;;;4983556;28;20484;-56
2023/09/13 04:42:42;;;;;;;138.18;57.40;;;;;;;;;;4982278;28;20072;-59
2023/09/13 04:45:08;;;;;;;140.43;59.15;;;;;;;;;;4983846;28;20026;-57
2023/09/13 04:47:35;;;;;;;138.73;56.75;;;;;;;;;;4983670;28;20030;-55
2023/09/13 04:50:02;;;;;;;133.57;55.42;;;;;;;;;;4983392;28;21760;-54
2023/09/13 04:52:28;;;;;;;131.10;57.42;;;;;;;;;;4983686;28;20042;-54
2023/09/13 04:54:54;;;;;;;132.88;55.90;;;;;;;;;;4983384;28;20096;-54
2023/09/13 04:57:20;;;;;;;142.73;56.72;;;;;;;;;;4983851;28;20452;-56
2023/09/13 04:59:50;;;;;;;137.10;54.60;;;;;;;;;;4986123;28;20540;-53
2023/09/13 05:02:16;;;;;;;115.45;51.30;;;;;;;;;;4978730;28;20100;-52
2023/09/13 05:04:42;;;;;;;122.88;53.08;;;;;;;;;;4980400;28;20046;-54
2023/09/13 05:07:08;;;;;;;115.40;50.65;;;;;;;;;;4978484;28;20113;-56
2023/09/13 05:09:36;;;;;;;119.38;49.42;;;;;;;;;;4981497;28;20034;-55
2023/09/13 05:12:02;;;;;;;120.43;50.33;;;;;;;;;;4979416;28;20026;-54
2023/09/13 05:14:28;;;;;;;117.80;48.30;;;;;;;;;;4982104;28;20037;-57
2023/09/13 05:16:54;;;;;;;118.55;50.28;;;;;;;;;;4979076;28;20030;-58
2023/09/13 05:19:20;;;;;;;115.90;50.42;;;;;;;;;;4978996;28;20042;-57
2023/09/13 05:21:46;;;;;;;106.15;47.42;;;;;;;;;;4981544;28;20105;-56
2023/09/13 05:24:11;;;;;;;109.88;47.33;;;;;;;;;;4987615;28;20710;-54
2023/09/13 05:26:38;;;;;;;116.13;48.10;;;;;;;;;;4987184;28;20027;-58
2023/09/13 05:29:04;;;;;;;108.13;47.60;;;;;;;;;;4987981;28;20106;-59
2023/09/13 05:31:29;;;;;;;109.35;46.92;;;;;;;;;;4982984;28;20493;-54
2023/09/13 05:33:55;;;;;;;106.30;46.30;;;;;;;;;;4986005;28;20037;-55
2023/09/13 05:36:21;;;;;;;94.03;45.28;;;;;;;;;;4982642;28;20026;-57
2023/09/13 05:38:49;;;;;;;110.30;47.58;;;;;;;;;;4988915;28;20381;-56
2023/09/13 05:41:14;;;;;;;105.55;45.67;;;;;;;;;;4988470;28;20042;-57
2023/09/13 05:43:42;;;;;;;97.13;45.00;;;;;;;;;;4988670;28;20031;-55
2023/09/13 05:46:08;;;;;;;106.45;45.17;;;;;;;;;;4989829;28;20485;-53
2023/09/13 05:48:34;;;;;;;90.97;43.75;;;;;;;;;;4987198;28;20046;-57
2023/09/13 05:51:01;;;;;;;86.50;42.28;;;;;;;;;;4990567;28;20030;-54
2023/09/13 05:53:27;;;;;;;84.00;38.55;;;;;;;;;;4989758;28;20041;-55
2023/09/13 05:55:53;;;;;;;81.75;39.00;;;;;;;;;;4989959;28;20034;-54
2023/09/13 05:58:19;;;;;;;81.93;38.53;;;;;;;;;;4989548;28;20509;-53
2023/09/13 06:00:50;;;;;;;75.05;37.10;;;;;;;;;;4990572;28;20138;-56
2023/09/13 06:03:17;;;;;;;68.18;34.45;;;;;;;;;;4987154;28;20061;-54
2023/09/13 06:05:43;;;;;;;73.07;34.00;;;;;;;;;;4990121;28;20030;-53
2023/09/13 06:08:09;;;;;;;66.63;35.45;;;;;;;;;;4990616;28;20045;-57
2023/09/13 06:10:35;;;;;;;64.93;33.58;;;20.40;99.90;;;;;;4985270;28;20042;-55
2023/09/13 06:13:00;;;;;;;64.82;34.47;;;18.90;99.90;;;;;;4989782;28;20030;-55
2023/09/13 06:15:26;;;;;;;70.95;34.00;;;18.60;99.90;;;;;;4992602;28;20053;-56
2023/09/13 06:17:51;;;;;;;69.07;34.85;;;18.60;99.90;;;;;;4993512;28;20038;-52
2023/09/13 06:20:17;;;;;;;59.55;33.60;;;;;;;;;;4993397;28;20037;-57
2023/09/13 06:22:43;;;;;;;61.30;33.55;;;;;;;;;;4993275;28;20035;-56
2023/09/13 06:25:09;;;;;;;65.88;34.42;;;;;;;;;;4993826;28;20038;-57
2023/09/13 06:27:35;;;;;;;61.03;31.90;;;;;;;;;;4991107;28;20113;-55
2023/09/13 06:30:02;;;;;;;56.97;31.85;;;;;;;;;;4988425;28;20505;-55
2023/09/13 06:32:28;;;;;;;74.68;36.40;;;;;;;;;;4989375;28;20117;-57
2023/09/13 06:34:58;;;;;;;62.28;34.30;;;;;;;;;;4986421;28;20131;-55
2023/09/13 06:37:25;;;;;;;60.15;32.30;;;;;;;;;;4987842;28;20109;-53
2023/09/13 06:39:51;;;;;;;55.30;30.90;;;;;;;;;;4988654;28;20574;-53
2023/09/13 06:42:17;;;;;;;60.50;32.28;;;;;;;;;;4992432;28;20077;-53
2023/09/13 06:44:43;;;;;;;63.22;31.92;;;;;;;;;;4991008;28;20026;-52
2023/09/13 06:47:09;;;;;;;64.57;34.70;;;;;;;;;;4987919;28;20027;-54
2023/09/13 06:49:35;;;;;;;65.75;34.42;;;;;;;;;;4991576;28;20034;-52
2023/09/13 06:52:01;;;;;;;66.70;32.72;;;;;;;;;;4991333;28;20010;-57
2023/09/13 06:54:27;;;;;;;63.97;32.72;;;;;;;;;;4992118;28;20507;-53
2023/09/13 06:56:53;;;;;;;67.95;34.53;;;;;;;;;;4994461;28;20018;-53
2023/09/13 06:59:19;;;;;;;61.13;31.33;;;;;;;;;;4988865;28;21614;-58
2023/09/13 07:01:46;;;;;;;75.93;33.75;;;;;;;;;;4990378;28;20389;-58
2023/09/13 07:04:13;;;;;;;62.10;31.52;;;;;;;;;;4989631;28;20026;-56
2023/09/13 07:06:39;;;;;;;57.05;31.08;;;;;;;;;;4992414;28;20029;-53
2023/09/13 07:09:05;;;;;;;69.70;33.40;;;;;;;;;;4991194;28;20041;-53
2023/09/13 07:11:31;;;;;;;56.83;29.95;;;;;;;;;;4990213;28;20040;-57
2023/09/13 07:13:59;;;;;;;67.45;31.33;;;;;;;;;;4988401;28;20030;-53
2023/09/13 07:16:25;;;;;;;63.15;31.67;;;;;;;;;;4989254;28;20018;-55
2023/09/13 07:18:51;;;;;;;58.10;31.92;;;;;;;;;;4992948;28;20404;-54
2023/09/13 07:21:17;;;;;;;59.85;32.33;;;;;;;;;;4991741;28;20030;-56
2023/09/13 07:23:43;;;;;;;61.67;32.40;;;;;;;;;;4990507;28;20023;-52
2023/09/13 07:26:09;;;;;;;68.78;31.23;;;;;;;;;;4992037;28;20389;-55
2023/09/13 07:28:35;;;;;;;59.38;30.15;;;;;;;;;;4991149;28;20105;-56
2023/09/13 07:31:05;;;;;;;67.05;31.10;;;;;;;;;;4986225;28;20157;-52
2023/09/13 07:33:31;;;;;;;54.88;29.77;;;;;;;;;;4986925;28;20163;-56
2023/09/13 07:35:57;;;;;;;59.65;31.10;;;;;;;;;;4990761;28;20529;-53
2023/09/13 07:38:22;;;;;;;57.90;30.25;;;;;;;;;;4992729;28;20034;-53
2023/09/13 07:40:48;;;;;;;60.83;28.85;;;;;;;;;;4992589;28;20038;-55
2023/09/13 07:43:16;;;;;;;60.10;30.17;;;;;;;;;;4991518;28;21859;-55
2023/09/13 07:45:42;;;;;;;57.15;29.42;;;;;;;;;;4991131;28;20500;-54
2023/09/13 07:48:08;;;;;;;49.10;27.80;;;;;;;;;;4988378;28;20061;-56
2023/09/13 07:50:36;;;;;;;58.25;29.50;;;;;;;;;;4989725;28;20046;-57
2023/09/13 07:53:03;;;;;;;57.10;29.70;;;;;;;;;;4983736;28;20033;-55
2023/09/13 07:55:29;;;;;;;54.40;28.35;;;;;;;;;;4988113;28;20455;-57
2023/09/13 07:57:56;;;;;;;58.22;28.00;;;;;;;;;;4989290;28;20105;-52
2023/09/13 08:00:22;;;;;;;56.28;28.33;;;;;;;;;;4984839;28;20034;-53
2023/09/13 08:02:49;;;;;;;58.72;29.60;;;;;;;;;;4989463;28;20030;-54
2023/09/13 08:05:15;;;;;;;59.90;28.27;;;;;;;;;;4989695;28;20381;-52
2023/09/13 08:07:42;;;;;;;56.83;28.75;;;;;;;;;;4991454;28;20026;-54
2023/09/13 08:10:08;;;;;;;52.53;27.63;;;;;;;;;;4991898;28;20034;-55
2023/09/13 08:12:34;;;;;;;49.90;27.60;;;;;;;;;;4989673;28;20026;-50
2023/09/13 08:15:00;;;;;;;53.20;27.45;;;;;;;;;;4992283;28;20515;-51
2023/09/13 08:17:26;;;;;;;58.45;30.65;;;;;;;;;;4992262;28;20026;-57
2023/09/13 08:19:52;;;;;;;51.92;27.90;;;;;;;;;;4987787;28;20113;-58
2023/09/13 08:22:18;;;;;;;51.45;28.10;;;;;;;;;;4987052;28;20034;-55
2023/09/13 08:24:44;;;;;;;51.10;26.50;;;;;;;;;;4988745;28;20066;-55
2023/09/13 08:27:09;;;;;;;48.90;25.35;;;;;;;;;;4986154;28;20041;-57
2023/09/13 08:29:35;;;;;;;40.97;22.90;;;;;;;;;;4986847;28;20034;-57
2023/09/13 08:32:02;;;;;;;40.58;21.77;;;;;;;;;;4989306;28;20061;-54
2023/09/13 08:34:28;;;;;;;41.65;24.42;;;;;;;;;;4989000;28;20069;-57
2023/09/13 08:36:56;;;;;;;43.33;24.95;;;;;;;;;;4987317;28;20023;-57
2023/09/13 08:39:22;;;;;;;43.45;22.85;;;;;;;;;;4988009;28;20488;-56
2023/09/13 08:41:51;;;;;;;45.03;23.50;;;;;;;;;;4987066;28;20041;-55
2023/09/13 08:44:20;;;;;;;44.22;23.83;;;;;;;;;;4988283;28;20054;-53
2023/09/13 08:46:47;;;;;;;41.63;22.48;;;;;;;;;;4991039;28;20022;-52
2023/09/13 08:49:13;;;;;;;46.17;23.83;;;;;;;;;;4991225;28;20026;-51
2023/09/13 08:51:39;;;;;;;48.22;23.90;;;;;;;;;;4991655;28;20385;-53
2023/09/13 08:54:06;;;;;;;49.72;23.73;;;18.70;99.90;;;;;;4991281;28;20038;-57
2023/09/13 08:56:32;;;;;;;46.75;23.23;;;19.50;99.90;;;;;;4989767;28;20388;-51
2023/09/13 08:58:58;;;;;;;37.90;21.13;;;19.60;99.90;;;;;;4991468;28;20022;-52
2023/09/13 09:01:25;;;;;;;40.33;20.40;;;19.60;99.90;;;;;;4989356;28;20037;-52
2023/09/13 09:03:52;;;;;;;38.50;19.10;;;19.70;99.90;;;;;;4991557;28;20030;-53
2023/09/13 09:06:19;;;;;;;33.28;18.75;;;19.80;99.90;;;;;;4991353;28;20069;-54
2023/09/13 09:08:47;;;;;;;35.90;18.27;;;19.90;99.90;;;;;;4991425;28;20021;-51
2023/09/13 09:11:14;;;;;;;34.63;19.05;;;19.90;99.90;;;;;;4984141;28;20039;-55
2023/09/13 09:13:42;;;;;;;36.97;19.88;;;19.90;99.90;;;;;;4991426;28;20114;-55
2023/09/13 09:16:10;;;;;;;35.75;18.90;;;19.90;99.90;;;;;;4985272;28;20041;-55
2023/09/13 09:18:37;;;;;;;33.78;19.00;;;19.90;99.90;;;;;;4987829;28;20034;-53
2023/09/13 09:21:03;;;;;;;33.55;18.95;;;19.90;99.90;;;;;;4990848;28;20073;-55
2023/09/13 09:23:31;;;;;;;33.35;16.05;;;20.10;99.90;;;;;;4991125;28;20039;-52
2023/09/13 09:25:56;;;;;;;33.00;16.27;;;20.20;99.90;;;;;;4987498;28;20023;-53
2023/09/13 09:28:23;;;;;;;33.30;16.48;;;20.30;99.90;;;;;;4984712;28;20072;-50
2023/09/13 09:30:51;;;;;;;29.75;15.18;;;20.50;99.90;;;;;;4990729;28;20041;-51
2023/09/13 09:33:28;;;;;;;31.75;14.35;;;20.40;99.90;;;;;;5000523;28;20084;-56
2023/09/13 09:35:55;;;;;;;37.40;14.75;;;20.40;99.90;;;;;;4987878;28;20033;-56
2023/09/13 09:38:22;;;;;;;29.08;14.10;;;20.50;99.90;;;;;;4989647;28;20503;-54
2023/09/13 09:40:49;;;;;;;34.03;16.10;;;20.60;99.90;;;;;;4987500;28;20419;-55
2023/09/13 09:43:15;;;;;;;34.45;15.85;;;20.50;99.90;;;;;;4989799;28;20535;-55
2023/09/13 09:45:40;;;;;;;33.45;14.93;;;20.50;99.90;;;;;;4988826;28;20026;-55
2023/09/13 09:48:07;;;;;;;35.42;14.95;;;20.40;99.90;;;;;;4989846;28;20019;-52
2023/09/13 09:50:32;;;;;;;29.60;13.80;;;20.50;99.90;;;;;;4990984;28;20030;-57
2023/09/13 09:52:58;;;;;;;24.30;13.07;;;20.60;99.90;;;;;;4992927;28;20033;-52
2023/09/13 09:55:25;;;;;;;40.50;15.80;;;20.70;99.90;;;;;;4994252;28;20045;-54
2023/09/13 09:57:52;;;;;;;30.73;15.15;;;20.70;99.90;;;;;;4992178;28;20046;-51
2023/09/13 10:00:18;;;;;;;28.15;13.88;;;20.70;99.90;;;;;;4993233;28;20138;-57
2023/09/13 10:02:45;;;;;;;30.30;15.25;;;;;;;;;;4990922;28;20022;-55
2023/09/13 10:05:14;;;;;;;24.27;13.77;;;20.80;99.90;;;;;;4993819;28;20027;-59
2023/09/13 10:07:40;;;;;;;31.33;13.70;;;20.80;99.90;;;;;;4990515;28;20034;-55
2023/09/13 10:10:09;;;;;;;31.02;14.18;;;20.70;99.90;;;;;;4993011;28;20508;-58
2023/09/13 10:12:45;;;;;;;24.48;13.32;;;20.70;99.90;;;;;;4993032;28;20396;-58
2023/09/13 10:15:11;;;;;;;24.10;12.23;;;20.80;99.90;;;;;;4993240;28;20045;-57
2023/09/13 10:17:39;;;;;;;26.17;11.73;;;20.90;99.90;;;;;;4993073;28;20042;-54
2023/09/13 10:20:06;;;;;;;25.52;12.88;;;20.90;99.90;;;;;;4991363;28;20027;-55
2023/09/13 10:22:35;;;;;;;22.52;12.95;;;21.00;99.90;;;;;;4996111;28;20034;-56
2023/09/13 10:25:05;;;;;;;18.88;10.70;;;20.90;99.90;;;;;;4993111;28;20785;-58
2023/09/13 10:27:34;;;;;;;22.13;10.75;;;20.90;99.90;;;;;;4988413;28;20038;-55
2023/09/13 10:30:05;;;;;;;18.38;10.32;;;20.90;99.90;;;;;;4987789;28;20026;-52
2023/09/13 10:32:43;;;;;;;16.95;10.05;;;20.90;99.90;;;;;;4989935;28;20157;-52
2023/09/13 10:35:11;;;;;;;14.98;9.43;;;21.00;99.90;;;;;;4990538;28;20034;-57
2023/09/13 10:37:43;;;;;;;13.75;8.85;;;20.90;99.90;;;;;;4990999;28;20030;-53
2023/09/13 10:40:22;;;;;;;14.70;8.93;;;21.00;99.90;;;;;;4993495;28;20038;-59
2023/09/13 10:42:49;;;;;;;21.25;9.77;;;21.10;99.90;;;;;;4991143;28;20026;-56
2023/09/13 10:45:18;;;;;;;17.45;9.15;;;21.10;99.90;;;;;;4991161;28;20054;-52
2023/09/13 10:47:46;;;;;;;16.85;9.15;;;21.30;99.90;;;;;;4990039;28;20385;-55
2023/09/13 10:50:14;;;;;;;13.65;8.85;;;21.30;99.90;;;;;;4993137;28;20022;-55
2023/09/13 10:52:41;;;;;;;17.88;8.85;;;21.40;99.90;;;;;;4992321;28;20039;-53
2023/09/13 10:55:08;;;;;;;17.83;9.63;;;21.40;99.90;;;;;;4993215;28;20056;-58
2023/09/13 10:57:34;;;;;;;19.30;8.98;;;21.50;99.90;;;;;;4987114;28;20029;-58
2023/09/13 11:00:01;;;;;;;14.85;8.02;;;21.60;99.90;;;;;;4983834;28;20412;-56
2023/09/13 11:02:27;;;;;;;21.55;9.23;;;21.80;99.90;;;;;;4987896;28;20110;-56
2023/09/13 11:04:53;;;;;;;21.42;9.93;;;21.90;99.90;;;;;;4986662;28;20168;-57
2023/09/13 11:07:18;;;;;;;19.50;8.80;;;21.70;99.90;;;;;;4988645;28;20101;-54
2023/09/13 11:09:45;;;;;;;14.52;8.38;;;21.70;99.90;;;;;;4985554;28;20026;-54
2023/09/13 11:12:12;;;;;;;21.95;8.68;;;21.50;99.90;;;;;;4987041;28;20964;-59
2023/09/13 11:14:43;;;;;;;19.63;7.93;;;21.70;99.90;;;;;;4992625;28;20459;-51
2023/09/13 11:17:10;;;;;;;15.63;8.90;;;22.00;99.90;;;;;;4989527;28;20396;-53
2023/09/13 11:19:36;;;;;;;14.70;8.32;;;22.40;99.90;;;;;;4984684;28;20019;-56
2023/09/13 11:22:03;;;;;;;14.50;8.05;;;22.50;99.90;;;;;;4990698;28;20034;-55
2023/09/13 11:24:35;;;;;;;13.98;8.25;;;22.60;99.90;;;;;;4984824;28;20507;-56
2023/09/13 11:27:18;;;;;;;14.13;8.10;;;22.50;99.90;;;;;;4986551;28;20022;-55
2023/09/13 11:29:50;;;;;;;15.82;9.15;;;22.40;99.90;;;;;;4989113;28;20081;-55
2023/09/13 11:32:21;;;;;;;15.05;8.68;;;22.30;99.90;;;;;;4986507;28;20101;-57
2023/09/13 11:34:55;;;;;;;12.90;7.97;;;22.30;99.90;;;;;;4989003;28;20030;-54
2023/09/13 11:37:24;;;;;;;16.33;7.57;;;22.40;99.90;;;;;;4987211;28;20085;-54
2023/09/13 11:39:54;;;;;;;12.60;6.07;;;22.40;99.90;;;;;;4983190;28;20057;-57
2023/09/13 11:42:28;;;;;;;11.48;7.13;;;22.50;99.90;;;;;;4987025;28;20313;-58
2023/09/13 11:44:57;;;;;;;11.65;6.45;;;22.40;99.90;;;;;;4987476;28;20113;-51
2023/09/13 11:47:23;;;;;;;14.18;7.30;;;22.50;99.90;;;;;;4984800;28;20069;-52
2023/09/13 11:49:53;;;;;;;11.50;5.97;;;22.40;99.90;;;;;;4983193;28;20034;-58
2023/09/13 11:52:19;;;;;;;11.45;6.05;;;22.30;99.90;;;;;;4981106;28;20122;-55
2023/09/13 11:54:56;;;;;;;19.15;7.68;;;22.20;99.90;;;;;;4983408;28;20098;-58
2023/09/13 11:57:22;;;;;;;12.32;7.68;;;22.10;99.90;;;;;;4985238;28;20089;-54
2023/09/13 11:59:53;;;;;;;16.40;7.88;;;22.00;99.90;;;;;;4989766;28;20507;-57
2023/09/13 12:02:19;;;;;;;13.13;6.57;;;22.20;99.90;;;;;;4982521;28;20101;-58
2023/09/13 12:04:48;;;;;;;9.77;6.22;;;22.60;99.90;;;;;;4985453;28;20022;-56
2023/09/13 12:07:13;;;;;;;10.40;6.15;;;22.90;99.90;;;;;;4982758;28;20093;-54
2023/09/13 12:09:39;;;;;;;10.98;5.85;;;23.00;99.90;;;;;;4981937;28;20509;-57
2023/09/13 12:12:05;;;;;;;14.77;6.15;;;22.90;99.90;;;;;;4981969;28;20030;-54
2023/09/13 12:14:31;;;;;;;11.07;6.30;;;22.80;99.90;;;;;;4984343;28;20400;-54
2023/09/13 12:16:57;;;;;;;9.13;5.57;;;23.00;99.90;;;;;;4983565;28;20022;-56
2023/09/13 12:19:25;;;;;;;20.80;6.95;;;23.10;99.90;;;;;;4988676;28;20026;-55
2023/09/13 12:21:50;;;;;;;7.97;4.72;;;23.00;99.90;;;;;;4985447;28;20053;-55
2023/09/13 12:24:20;;;;;;;11.63;4.63;;;22.40;99.90;;;;;;4981195;28;20795;-57
2023/09/13 12:26:50;;;;;;;5.32;3.20;;;22.00;99.90;;;;;;4986121;28;20026;-55
2023/09/13 12:29:15;;;;;;;3.85;2.58;;;21.60;99.90;;;;;;4990480;28;20690;-58
2023/09/13 12:31:42;;;;;;;3.28;2.03;;;21.10;99.90;;;;;;4991843;28;20022;-58
2023/09/13 12:34:09;;;;;;;2.10;1.77;;;20.80;99.90;;;;;;4990173;28;20034;-54
2023/09/13 12:36:34;;;;;;;3.22;1.42;;;20.60;99.90;;;;;;4990169;28;20065;-55
2023/09/13 12:39:00;;;;;;;1.70;1.38;;;20.40;99.90;;;;;;4989594;28;20447;-55
2023/09/13 12:41:31;;;;;;;1.60;1.40;;;20.20;99.90;;;;;;4991471;28;20030;-55
2023/09/13 12:43:57;;;;;;;7.13;1.92;;;19.70;99.90;;;;;;4989514;28;20033;-54
2023/09/13 12:46:26;;;;;;;1.65;1.50;;;19.40;99.90;;;;;;4988175;28;20077;-52
2023/09/13 12:48:53;;;;;;;3.10;1.90;;;19.20;99.90;;;;;;4990395;28;20100;-52
2023/09/13 12:51:27;;;;;;;4.72;2.45;;;19.00;99.90;;;;;;4988860;28;20110;-59
2023/09/13 12:53:53;;;;;;;5.35;2.92;;;18.80;99.90;;;;;;4987467;28;20041;-56
2023/09/13 12:56:19;;;;;;;5.00;2.42;;;18.80;99.90;;;;;;4988511;28;20057;-53
2023/09/13 12:58:53;;;;;;;4.50;2.75;;;18.70;99.90;;;;;;4990476;28;20033;-54
2023/09/13 13:01:19;;;;;;;4.50;3.93;;;18.60;99.90;;;;;;4988809;28;20050;-55
2023/09/13 13:03:58;;;;;;;6.80;5.15;;;18.50;99.90;;;;;;4984167;28;20065;-53
2023/09/13 13:06:25;;;;;;;8.73;6.65;;;18.40;99.90;;;;;;4988939;28;20373;-54
2023/09/13 13:08:50;;;;;;;11.52;7.03;;;18.30;99.90;;;;;;4989185;28;20026;-54
2023/09/13 13:11:16;;;;;;;13.52;8.70;;;18.10;99.90;;;;;;4987482;28;20034;-53
2023/09/13 13:13:41;;;;;;;14.40;11.10;;;18.00;99.90;;;;;;4987947;28;20034;-50
2023/09/13 13:16:17;;;;;;;21.95;13.18;;;17.90;99.90;;;;;;4987366;28;20109;-54
2023/09/13 13:18:51;;;;;;;20.48;14.73;;;17.80;99.90;;;;;;4988122;28;20026;-55
2023/09/13 13:21:18;;;;;;;25.77;16.83;;;17.70;99.90;;;;;;4989161;28;20077;-54
2023/09/13 13:23:47;;;;;;;35.40;21.70;;;17.80;99.90;;;;;;4988238;28;20038;-54
2023/09/13 13:26:14;;;;;;;46.22;28.23;;;17.80;99.90;;;;;;4990514;28;20163;-52
2023/09/13 13:28:40;;;;;;;49.67;31.58;;;17.80;99.90;;;;;;4986263;28;20048;-54
2023/09/13 13:31:05;;;;;;;59.55;36.58;;;17.90;99.90;;;;;;4986113;28;20560;-53
2023/09/13 13:33:33;;;;;;;64.72;38.05;;;17.80;99.90;;;;;;4986035;28;20038;-51